Flight Track Log - Related Links

Times and Time Zones

All times are in EST time to prevent confusion due to time zone crossing. See the AAY894 flight status page for this flight to view local times or setup timezone preferences in your user account.

Time Position Orientation Groundspeed Altitude Reporting Facility
EST Latitude Longitude Course Direction KTS MPH feet Rate Location/Type
Sun 08:40:31 AM 27.8833 -82.6833 180° South 163 188 1,300  Level Tampa TRACON
Sun 08:40:55 AM 27.8667 -82.6833 180° South 172 198 2,000 1,750 Climbing Tampa TRACON
Sun 08:41:43 AM 27.8333 -82.7000 204° Southwest 204 235 3,400 2,163 Climbing Tampa TRACON
Sun 08:43:47 AM 27.9517 -82.7539 338° Northwest 269 310 8,200 2,380 Climbing Jacksonville Center
Sun 08:44:47 AM 28.0350 -82.7469 North 281 323 10,700 1,850 Climbing Jacksonville Center
Sun 08:45:47 AM 28.1289 -82.7397 North 308 354 11,900 1,450 Climbing Jacksonville Center
Sun 08:46:47 AM 28.2394 -82.7322 North 352 405 13,600 2,100 Climbing Jacksonville Center
Sun 08:47:47 AM 28.3522 -82.7228 North 388 447 16,100 2,150 Climbing Jacksonville Center
Sun 08:48:47 AM 28.4692 -82.7156 North 406 467 17,900 1,750 Climbing Jacksonville Center
Sun 08:49:47 AM 28.5881 -82.7033 North 418 481 19,600 1,550 Climbing Jacksonville Center
Sun 08:50:47 AM 28.7111 -82.6961 North 429 494 21,000 1,450 Climbing Jacksonville Center
Sun 08:51:47 AM 28.8383 -82.6839 North 439 505 22,500 1,600 Climbing Jacksonville Center
Sun 08:52:47 AM 28.9700 -82.6742 North 452 520 24,200 1,500 Climbing Jacksonville Center
Sun 08:53:47 AM 29.1014 -82.6644 North 463 533 25,500 1,700 Climbing Jacksonville Center
Sun 08:54:47 AM 29.2267 -82.6500 North 463 533 27,600 1,650 Climbing Jacksonville Center
Sun 08:55:47 AM 29.3519 -82.6425 North 458 527 28,800 1,200 Climbing Jacksonville Center
Sun 08:56:47 AM 29.4792 -82.6325 North 458 527 30,000 950 Climbing Jacksonville Center
Sun 08:57:47 AM 29.6022 -82.6228 North 452 520 30,700 800 Climbing Jacksonville Center
Sun 08:58:47 AM 29.7297 -82.6103 North 452 520 31,600 800 Climbing Jacksonville Center
Sun 08:59:47 AM 29.8444 -82.6053 North 452 520 32,300 650 Climbing Jacksonville Center
Sun 09:00:47 AM 29.9675 -82.5928 North 457 526 32,900 350 Climbing Jacksonville Center
Sun 09:01:47 AM 30.0908 -82.5900 North 452 520 33,000 50 Climbing Jacksonville Center
Sun 09:02:47 AM 30.2181 -82.5778 North 452 520 33,000  Level Jacksonville Center
Sun 09:03:47 AM 30.3433 -82.5700 North 452 520 33,000  Level Jacksonville Center
Sun 09:04:47 AM 30.4664 -82.5575 North 452 520 33,000  Level Jacksonville Center
Sun 09:05:47 AM 30.5897 -82.5522 North 440 506 33,000  Level Jacksonville Center
Sun 09:06:47 AM 30.7150 -82.5469 North 440 506 33,000  Level Jacksonville Center
Sun 09:07:47 AM 30.8381 -82.5417 North 440 506 33,000 -50 Level Jacksonville Center
Sun 09:08:47 AM 30.9633 -82.5339 North 440 506 32,900  Descending Jacksonville Center
Sun 09:09:47 AM 31.0844 -82.5336 360° North 440 506 33,000  Climbing Jacksonville Center
Sun 09:10:47 AM 31.2078 -82.5233 North 440 506 32,900  Descending Jacksonville Center
Sun 09:11:47 AM 31.3308 -82.5228 360° North 440 506 33,000 50 Climbing Jacksonville Center
Sun 09:12:47 AM 31.4519 -82.5103 North 440 506 33,000  Level Jacksonville Center
Sun 09:14:30 AM 31.6764 -82.4892 North 450 518 33,000  Level Atlanta Center
Sun 09:15:30 AM 31.8033 -82.4725 North 450 518 33,000  Level Atlanta Center
Sun 09:16:30 AM 31.9242 -82.4458 11° North 445 512 33,000  Level Atlanta Center
Sun 09:17:30 AM 32.0514 -82.4314 North 445 512 33,000  Level Atlanta Center
Sun 09:18:30 AM 32.1761 -82.4069 North 445 512 33,000  Level Atlanta Center
Sun 09:19:30 AM 32.2969 -82.3900 North 445 512 33,000  Level Atlanta Center
Sun 09:20:30 AM 32.4219 -82.3681 North 445 512 33,000  Level Atlanta Center
Sun 09:21:30 AM 32.5450 -82.3508 North 445 512 33,000  Level Atlanta Center
Sun 09:22:30 AM 32.6697 -82.3289 North 445 512 33,000  Level Atlanta Center
Sun 09:23:30 AM 32.7947 -82.3117 North 445 512 33,000  Level Atlanta Center
Sun 09:24:30 AM 32.9219 -82.2892 North 445 512 33,000  Level Atlanta Center
Sun 09:25:30 AM 33.0425 -82.2719 North 445 512 33,000  Level Atlanta Center
Sun 09:26:30 AM 33.1697 -82.2494 North 445 512 33,000  Level Atlanta Center
Sun 09:27:30 AM 33.2967 -82.2319 North 445 512 33,000  Level Atlanta Center
Sun 09:28:30 AM 33.4175 -82.2069 10° North 445 512 33,000  Level Atlanta Center
Sun 09:29:30 AM 33.5319 -82.1922 North 445 512 33,000  Level Atlanta Center
Sun 09:30:30 AM 33.6547 -82.1647 11° North 450 518 33,000  Level Atlanta Center
Sun 09:31:30 AM 33.7817 -82.1494 North 450 518 33,000  Level Atlanta Center
Sun 09:32:30 AM 33.9067 -82.1264 North 450 518 33,000  Level Atlanta Center
Sun 09:33:30 AM 34.0336 -82.1061 North 450 518 33,000  Level Atlanta Center
Sun 09:34:30 AM 34.1586 -82.0831 North 450 518 33,000  Level Atlanta Center
Sun 09:35:30 AM 34.2856 -82.0628 North 450 518 33,000  Level Atlanta Center
Sun 09:36:30 AM 34.4125 -82.0397 North 456 525 33,000  Level Atlanta Center
Sun 09:37:30 AM 34.5372 -82.0164 North 456 525 33,000  Level Atlanta Center
Sun 09:38:30 AM 34.6789 -81.9928 North 461 531 33,000  Level Atlanta Center
Sun 09:39:30 AM 34.8036 -81.9694 North 461 531 33,000  Level Atlanta Center
Sun 09:40:30 AM 34.9056 -81.9517 North 461 531 33,000  Level Atlanta Center
Sun 09:41:30 AM 35.0450 -81.9306 North 461 531 33,000  Level Atlanta Center
Sun 09:42:30 AM 35.1758 -81.8892 14° North 466 536 33,000  Level Atlanta Center
Sun 09:43:30 AM 35.3044 -81.8578 11° North 466 536 33,000  Level Atlanta Center
Sun 09:44:30 AM 35.4333 -81.8186 14° North 466 536 33,000  Level Atlanta Center
Sun 09:45:30 AM 35.5619 -81.7844 12° North 466 536 33,000  Level Atlanta Center
Sun 09:46:30 AM 35.6886 -81.7453 14° North 466 536 33,000  Level Atlanta Center
Sun 09:47:30 AM 35.8192 -81.7108 12° North 471 542 33,000  Level Atlanta Center
Sun 09:48:30 AM 35.9458 -81.6714 14° North 471 542 33,000  Level Atlanta Center
Sun 09:49:30 AM 36.0764 -81.6342 13° North 471 542 33,000  Level Atlanta Center
Sun 09:50:30 AM 36.2008 -81.5944 14° North 471 542 33,000  Level Atlanta Center
Sun 09:51:30 AM 36.3314 -81.5544 14° North 471 542 33,000  Level Atlanta Center
Sun 09:52:30 AM 36.4600 -81.5194 12° North 471 542 33,000  Level Atlanta Center
Sun 09:53:30 AM 36.5886 -81.4817 13° North 471 542 33,000  Level Atlanta Center
Sun 09:54:30 AM 36.7189 -81.4414 14° North 471 542 33,000  Level Atlanta Center
Sun 09:55:51 AM 36.8950 -81.3931 12° North 481 554 33,000  Level Indianapolis Center
Sun 09:56:52 AM 37.0333 -81.3461 15° North 479 551 33,000  Level Indianapolis Center
Sun 09:57:53 AM 37.1625 -81.3128 12° North 475 547 33,000  Level Indianapolis Center
Sun 09:58:55 AM 37.3011 -81.2731 13° North 482 555 33,000  Level Indianapolis Center
Sun 09:59:56 AM 37.4278 -81.2358 13° North 478 550 33,000  Level Indianapolis Center
Sun 10:00:57 AM 37.5544 -81.1986 13° North 478 550 33,000  Level Indianapolis Center
Sun 10:01:58 AM 37.6808 -81.1578 14° North 479 551 33,000  Level Indianapolis Center
Sun 10:03:00 AM 37.8247 -81.1167 13° North 469 540 33,000  Level Indianapolis Center
Sun 10:04:01 AM 37.9542 -81.0800 13° North 473 544 33,000  Level Indianapolis Center
Sun 10:05:02 AM 38.0825 -81.0422 13° North 476 548 33,000  Level Indianapolis Center
Sun 10:06:04 AM 38.2119 -81.0033 13° North 477 549 33,000  Level Indianapolis Center
Sun 10:07:05 AM 38.3394 -80.9669 13° North 473 544 33,000  Level Indianapolis Center
Sun 10:08:06 AM 38.4683 -80.9272 14° North 477 549 33,000  Level Indianapolis Center
Sun 10:09:08 AM 38.5953 -80.8903 13° North 473 544 33,000  Level Indianapolis Center
Sun 10:10:09 AM 38.7483 -80.8461 13° North 471 542 33,000  Level Indianapolis Center
Sun 10:11:10 AM 38.8758 -80.8069 13° North 474 545 33,000  Level Indianapolis Center
Sun 10:12:11 AM 39.0047 -80.7686 13° North 479 551 33,000  Level Indianapolis Center
Sun 10:13:13 AM 39.1333 -80.7306 13° North 476 548 33,000  Level Indianapolis Center
Sun 10:14:14 AM 39.2631 -80.6900 14° North 480 552 33,000  Level Indianapolis Center
Sun 10:15:15 AM 39.3928 -80.6511 13° North 479 551 33,000 -439 Level Indianapolis Center
Sun 10:16:17 AM 39.5236 -80.6131 13° North 481 554 32,100 -927 Descending Indianapolis Center
Sun 10:17:18 AM 39.6564 -80.5758 12° North 486 559 31,100 -541 Descending Indianapolis Center
Sun 10:18:19 AM 39.7886 -80.5325 14° North 491 565 31,000 -49 Descending Indianapolis Center
Sun 10:19:20 AM 39.9467 -80.4853 13° North 487 560 31,000  Level Indianapolis Center
Sun 10:20:22 AM 40.0614 -80.4461 15° North 493 567 31,000  Level Indianapolis Center
Sun 10:21:23 AM 40.2167 -80.4017 12° North 488 562 31,000  Level Indianapolis Center
Sun 10:22:24 AM 40.3508 -80.3583 14° North 491 565 31,000  Level Indianapolis Center
Sun 10:23:26 AM 40.4839 -80.3189 13° North 489 563 31,000  Level Indianapolis Center
Sun 10:24:55 AM 40.6831 -80.2600 13° North 494 568 31,000 -79 Level Cleveland Center
Sun 10:25:57 AM 40.8183 -80.2100 16° North 502 578 30,800 -537 Descending Cleveland Center
Sun 10:26:58 AM 40.9411 -80.1406 23° Northeast 519 597 29,900 -927 Descending Cleveland Center
Sun 10:28:00 AM 41.0781 -80.0775 19° North 521 600 28,900 -1,073 Descending Cleveland Center
Sun 10:29:01 AM 41.2383 -79.9839 24° Northeast 524 603 27,700 -1,024 Descending Cleveland Center
Sun 10:30:03 AM 41.3553 -79.9256 21° North 517 595 26,800 -1,024 Descending Cleveland Center
Sun 10:31:04 AM 41.5114 -79.8347 24° Northeast 511 588 25,600 -1,073 Descending Cleveland Center
Sun 10:32:06 AM 41.6414 -79.7708 20° North 500 575 24,600 -1,122 Descending Cleveland Center
Sun 10:33:07 AM 41.7561 -79.7006 25° Northeast 501 577 23,300 -1,610 Descending Cleveland Center
Sun 10:34:09 AM 41.9011 -79.6236 22° Northeast 480 552 21,300 -1,902 Descending Cleveland Center
Sun 10:35:10 AM 42.0100 -79.5667 21° North 462 532 19,400 -1,756 Descending Cleveland Center
Sun 10:36:12 AM 42.1236 -79.4975 24° Northeast 450 518 17,700 -1,512 Descending Cleveland Center
Sun 10:37:13 AM 42.2339 -79.4431 20° North 429 494 16,300 -1,707 Descending Cleveland Center
Sun 10:38:15 AM 42.3608 -79.3658 24° Northeast 422 486 14,200 -1,610 Descending Cleveland Center
Sun 10:39:16 AM 42.4631 -79.3167 20° North 402 463 13,000 -976 Descending Cleveland Center
Sun 10:40:18 AM 42.5483 -79.2597 26° Northeast 378 435 12,200 -829 Descending Cleveland Center
Sun 10:41:19 AM 42.6361 -79.2178 19° North 336 387 11,300 -1,415 Descending Cleveland Center
Sun 10:42:21 AM 42.7258 -79.1603 25° Northeast 322 371 9,300 -1,805 Descending Cleveland Center
Sun 10:43:22 AM 42.7931 -79.0767 42° Northeast 312 359 7,600 -1,463 Descending Cleveland Center
Sun 10:44:24 AM 42.8544 -79.0036 41° Northeast 287 330 6,300 -1,258 Descending Cleveland Center
Sun 10:45:26 AM 42.9122 -78.9308 43° Northeast 274 315 5,000 -634 Descending Cleveland Center
Sun 10:46:27 AM 42.9633 -78.8689 42° Northeast 243 280 5,000 -433 Level Cleveland Center
Sun 10:47:03 AM 42.9833 -78.8167 62° Northeast 229 264 4,300 -938 Descending Buffalo TRACON
Sun 10:48:03 AM 43.0333 -78.7667 36° Northeast 213 245 3,500 -789 Descending Buffalo TRACON
Sun 10:48:57 AM 43.0667 -78.7167 48° Northeast 207 238 2,800 -632 Descending Buffalo TRACON
Sun 10:49:57 AM 43.1000 -78.7500 324° Northwest 184 212 2,300 -298 Descending Buffalo TRACON
Sun 10:50:58 AM 43.1167 -78.8000 295° West 135 155 2,200 -347 Descending Buffalo TRACON
Sun 10:51:58 AM 43.1167 -78.8500 270° West 124 143 1,600 -600 Descending Buffalo TRACON
Sun 10:52:58 AM 43.1167 -78.9000 270° West 126 145 1,000 -600 Descending Buffalo TRACON

Login

Don't have an account? Register now (free) for customized features, flight alerts, and more!